createdAt,value
2023-04-11T00:01:32.403Z,100.00
2023-04-11T00:04:01.025Z,100.00
2023-04-11T00:06:29.672Z,100.00
2023-04-11T00:08:57.940Z,100.00
2023-04-11T00:11:26.223Z,100.00
2023-04-11T00:13:57.791Z,100.00
2023-04-11T00:16:27.250Z,100.00
2023-04-11T00:18:57.721Z,100.00
2023-04-11T00:21:26.308Z,100.00
2023-04-11T00:23:54.336Z,100.00
2023-04-11T00:26:22.308Z,100.00
2023-04-11T00:28:50.346Z,100.00
2023-04-11T00:31:18.363Z,100.00
2023-04-11T00:33:46.305Z,100.00
2023-04-11T00:36:14.528Z,100.00
2023-04-11T00:38:42.555Z,100.00
2023-04-11T00:41:11.026Z,100.00
2023-04-11T00:43:39.033Z,100.00
2023-04-11T00:46:09.537Z,100.00
2023-04-11T00:48:37.866Z,100.00
2023-04-11T00:51:06.025Z,100.00
2023-04-11T00:53:37.287Z,100.00
2023-04-11T00:56:05.619Z,100.00
2023-04-11T00:58:34.689Z,100.00
2023-04-11T01:01:09.394Z,100.00
2023-04-11T01:03:41.452Z,100.00
2023-04-11T01:06:12.130Z,100.00
2023-04-11T01:08:43.364Z,100.00
2023-04-11T01:11:12.903Z,100.00
2023-04-11T01:13:42.609Z,100.00
2023-04-11T01:16:12.064Z,100.00
2023-04-11T01:18:40.064Z,100.00
2023-04-11T01:21:09.908Z,100.00
2023-04-11T01:23:38.260Z,100.00
2023-04-11T01:26:06.618Z,100.00
2023-04-11T01:28:34.678Z,100.00
2023-04-11T01:31:04.249Z,100.00
2023-04-11T01:33:32.896Z,100.00
2023-04-11T01:36:01.440Z,100.00
2023-04-11T01:38:29.718Z,100.00
2023-04-11T01:40:59.082Z,100.00
2023-04-11T01:43:27.642Z,100.00
2023-04-11T01:45:55.945Z,100.00
2023-04-11T01:48:24.015Z,100.00
2023-04-11T01:50:53.527Z,100.00
2023-04-11T01:53:21.461Z,100.00
2023-04-11T01:55:49.380Z,100.00
2023-04-11T01:58:17.456Z,100.00
2023-04-11T02:00:45.465Z,100.00
2023-04-11T02:03:13.627Z,100.00
2023-04-11T02:05:43.089Z,100.00
2023-04-11T02:08:11.558Z,100.00
2023-04-11T02:10:39.487Z,100.00
2023-04-11T02:13:07.374Z,100.00
2023-04-11T02:15:35.374Z,100.00
2023-04-11T02:18:03.559Z,100.00
2023-04-11T02:20:31.937Z,100.00
2023-04-11T02:23:03.639Z,100.00
2023-04-11T02:25:31.579Z,100.00
2023-04-11T02:28:00.971Z,100.00
2023-04-11T02:30:29.092Z,100.00
2023-04-11T02:32:57.050Z,100.00
2023-04-11T02:35:24.983Z,100.00
2023-04-11T02:37:52.889Z,100.00
2023-04-11T02:40:20.761Z,100.00
2023-04-11T02:42:48.675Z,100.00
2023-04-11T02:45:18.399Z,100.00
2023-04-11T02:47:46.372Z,100.00
2023-04-11T02:50:14.316Z,100.00
2023-04-11T02:52:49.403Z,100.00
2023-04-11T02:55:19.381Z,100.00
2023-04-11T02:57:47.468Z,100.00
2023-04-11T03:00:20.441Z,100.00
2023-04-11T03:02:52.104Z,100.00
2023-04-11T03:05:22.929Z,100.00
2023-04-11T03:07:53.135Z,100.00
2023-04-11T03:10:21.126Z,100.00
2023-04-11T03:12:49.092Z,100.00
2023-04-11T03:15:17.858Z,100.00
2023-04-11T03:17:45.903Z,100.00
2023-04-11T03:20:19.803Z,100.00
2023-04-11T03:22:51.244Z,100.00
2023-04-11T03:25:20.198Z,100.00
2023-04-11T03:27:49.477Z,100.00
2023-04-11T03:30:17.610Z,100.00
2023-04-11T03:32:47.918Z,100.00
2023-04-11T03:35:17.534Z,100.00
2023-04-11T03:37:47.872Z,100.00
2023-04-11T03:40:18.786Z,100.00
2023-04-11T03:42:51.237Z,100.00
2023-04-11T03:45:22.689Z,100.00
2023-04-11T03:47:51.716Z,100.00
2023-04-11T03:50:21.972Z,100.00
2023-04-11T03:52:51.838Z,100.00
2023-04-11T03:55:20.778Z,100.00
2023-04-11T03:57:48.957Z,100.00
2023-04-11T04:00:20.957Z,100.00
2023-04-11T04:02:57.172Z,100.00
2023-04-11T04:05:26.181Z,100.00
2023-04-11T04:07:55.925Z,100.00
2023-04-11T04:10:35.776Z,100.00
2023-04-11T04:13:03.824Z,100.00
2023-04-11T04:15:42.595Z,100.00
2023-04-11T04:18:11.727Z,100.00
2023-04-11T04:20:49.490Z,100.00
2023-04-11T04:23:18.417Z,100.00
2023-04-11T04:26:25.134Z,100.00
2023-04-11T04:29:05.880Z,100.00
2023-04-11T04:31:50.776Z,100.00
2023-04-11T04:34:22.054Z,100.00
2023-04-11T04:36:50.452Z,100.00
2023-04-11T04:39:25.842Z,100.00
2023-04-11T04:42:00.689Z,100.00
2023-04-11T04:44:34.163Z,100.00
2023-04-11T04:47:05.544Z,100.00
2023-04-11T04:49:33.468Z,100.00
2023-04-11T04:52:02.584Z,100.00
2023-04-11T04:54:32.333Z,100.00
2023-04-11T04:57:01.827Z,100.00
2023-04-11T04:59:29.845Z,100.00
2023-04-11T05:02:03.665Z,100.00
2023-04-11T05:04:34.553Z,100.00
2023-04-11T05:07:03.785Z,100.00
2023-04-11T05:09:32.585Z,100.00
2023-04-11T05:12:10.947Z,100.00
2023-04-11T05:14:40.042Z,100.00
2023-04-11T05:17:08.176Z,100.00
2023-04-11T05:19:36.313Z,100.00
2023-04-11T05:22:04.591Z,100.00
2023-04-11T05:24:34.150Z,100.00
2023-04-11T05:27:02.959Z,100.00
2023-04-11T05:29:31.850Z,100.00
2023-04-11T05:32:01.112Z,100.00
2023-04-11T05:34:32.878Z,100.00
2023-04-11T05:37:01.498Z,100.00
2023-04-11T05:39:29.757Z,100.00
2023-04-11T05:41:58.139Z,100.00
2023-04-11T05:44:26.166Z,100.00
2023-04-11T05:46:54.059Z,100.00
2023-04-11T05:49:22.319Z,100.00
2023-04-11T05:51:50.323Z,100.00
2023-04-11T05:54:37.779Z,100.00
2023-04-11T05:57:07.997Z,100.00
2023-04-11T05:59:36.258Z,100.00
2023-04-11T06:02:04.596Z,100.00
2023-04-11T06:04:32.856Z,100.00
2023-04-11T06:07:04.005Z,100.00
2023-04-11T06:09:33.960Z,100.00
2023-04-11T06:12:03.666Z,100.00
2023-04-11T06:14:33.544Z,100.00
2023-04-11T06:17:01.552Z,100.00
2023-04-11T06:19:29.612Z,100.00
2023-04-11T06:21:57.707Z,100.00
2023-04-11T06:24:40.633Z,100.00
2023-04-11T06:27:12.173Z,100.00
2023-04-11T06:29:44.026Z,100.00
2023-04-11T06:32:13.283Z,100.00
2023-04-11T06:34:41.987Z,100.00
2023-04-11T06:37:11.347Z,100.00
2023-04-11T06:39:39.791Z,100.00
2023-04-11T06:42:08.190Z,100.00
2023-04-11T06:44:36.738Z,100.00
2023-04-11T06:47:05.026Z,99.69
2023-04-11T06:49:34.113Z,100.00
2023-04-11T06:52:04.729Z,99.91
2023-04-11T06:54:32.920Z,100.00
2023-04-11T06:57:03.585Z,100.00
2023-04-11T06:59:32.813Z,99.98
2023-04-11T07:02:01.156Z,99.89
2023-04-11T07:04:29.575Z,97.51
2023-04-11T07:06:57.918Z,92.85
2023-04-11T07:09:26.075Z,91.56
2023-04-11T07:11:54.282Z,94.39
2023-04-11T07:14:22.406Z,99.82
2023-04-11T07:16:50.724Z,100.00
2023-04-11T07:19:19.089Z,100.00
2023-04-11T07:21:48.997Z,100.00
2023-04-11T07:24:18.749Z,100.00
2023-04-11T07:26:47.086Z,100.00
2023-04-11T07:29:15.187Z,100.00
2023-04-11T07:31:45.430Z,100.00
2023-04-11T07:34:13.554Z,100.00
2023-04-11T07:36:42.348Z,100.00
2023-04-11T07:39:14.217Z,100.00
2023-04-11T07:41:42.563Z,100.00
2023-04-11T07:44:10.942Z,100.00
2023-04-11T07:46:39.035Z,100.00
2023-04-11T07:49:07.366Z,100.00
2023-04-11T07:51:35.424Z,100.00
2023-04-11T07:54:03.935Z,100.00
2023-04-11T07:56:32.067Z,100.00
2023-04-11T07:59:01.418Z,100.00
2023-04-11T08:01:29.861Z,100.00
2023-04-11T08:03:58.671Z,100.00
2023-04-11T08:06:30.247Z,100.00
2023-04-11T08:08:59.030Z,100.00
2023-04-11T08:11:27.163Z,100.00
2023-04-11T08:13:55.706Z,100.00
2023-04-11T08:16:24.728Z,100.00
2023-04-11T08:18:52.987Z,100.00
2023-04-11T08:21:23.787Z,100.00
2023-04-11T08:23:52.233Z,100.00
2023-04-11T08:26:21.246Z,100.00
2023-04-11T08:28:49.688Z,100.00
2023-04-11T08:31:18.291Z,100.00
2023-04-11T08:33:46.496Z,100.00
2023-04-11T08:36:14.689Z,100.00
2023-04-11T08:38:42.822Z,100.00
2023-04-11T08:41:11.568Z,100.00
2023-04-11T08:43:44.048Z,100.00
2023-04-11T08:46:13.252Z,100.00
2023-04-11T08:48:41.271Z,100.00
2023-04-11T08:51:09.391Z,100.00
2023-04-11T08:53:39.221Z,100.00
2023-04-11T08:56:17.610Z,100.00
2023-04-11T08:58:47.353Z,100.00
2023-04-11T09:01:27.454Z,100.00
2023-04-11T09:03:56.367Z,100.00
2023-04-11T09:06:24.998Z,100.00
2023-04-11T09:08:53.215Z,100.00
2023-04-11T09:11:21.780Z,100.00
2023-04-11T09:14:15.215Z,100.00
2023-04-11T09:17:05.007Z,100.00
2023-04-11T09:19:35.189Z,100.00
2023-04-11T09:22:07.362Z,100.00
2023-04-11T09:24:37.318Z,100.00
2023-04-11T09:27:17.004Z,100.00
2023-04-11T09:29:47.604Z,100.00
2023-04-11T09:32:31.952Z,100.00
2023-04-11T09:35:21.033Z,100.00
2023-04-11T09:37:52.803Z,100.00
2023-04-11T09:40:31.931Z,100.00
2023-04-11T09:43:02.961Z,100.00
2023-04-11T09:45:38.277Z,100.00
2023-04-11T09:48:09.574Z,100.00
2023-04-11T09:50:38.747Z,100.00
2023-04-11T09:53:07.083Z,100.00
2023-04-11T09:55:38.144Z,100.00
2023-04-11T09:58:10.596Z,100.00
2023-04-11T10:00:41.373Z,100.00
2023-04-11T10:03:09.564Z,100.00
2023-04-11T10:05:39.161Z,99.08
2023-04-11T10:08:26.336Z,92.77
2023-04-11T10:10:54.605Z,85.02
2023-04-11T10:13:43.662Z,89.75
2023-04-11T10:16:18.954Z,92.38
2023-04-11T10:18:53.301Z,97.87
2023-04-11T10:21:28.040Z,98.91
2023-04-11T10:24:17.528Z,93.64
2023-04-11T10:26:50.522Z,81.09
2023-04-11T10:29:34.759Z,83.45
2023-04-11T10:32:24.982Z,79.14
2023-04-11T10:34:53.586Z,81.68
2023-04-11T10:37:33.615Z,77.15
2023-04-11T10:40:10.443Z,81.38
2023-04-11T10:42:43.771Z,79.14
2023-04-11T10:45:30.514Z,77.19
2023-04-11T10:47:58.856Z,75.74
2023-04-11T10:50:31.911Z,77.67
2023-04-11T10:53:06.694Z,62.24
2023-04-11T10:55:46.270Z,57.97
2023-04-11T10:58:22.462Z,59.15
2023-04-11T11:00:54.358Z,57.00
2023-04-11T11:03:32.235Z,56.26
2023-04-11T11:06:03.074Z,54.24
2023-04-11T11:08:38.245Z,52.92
2023-04-11T11:11:09.720Z,54.78
2023-04-11T11:13:53.140Z,55.30
2023-04-11T11:16:24.340Z,56.97
2023-04-11T11:18:54.983Z,59.28
2023-04-11T11:21:28.573Z,63.23
2023-04-11T11:24:03.766Z,56.66
2023-04-11T11:26:44.021Z,49.84
2023-04-11T11:29:13.465Z,48.30
2023-04-11T11:31:45.999Z,48.11
2023-04-11T11:34:26.330Z,52.11
2023-04-11T11:36:56.610Z,52.89
2023-04-11T11:39:26.018Z,49.79
2023-04-11T11:41:54.586Z,48.12
2023-04-11T11:44:30.365Z,48.29
2023-04-11T11:47:06.859Z,49.37
2023-04-11T11:49:51.464Z,53.65
2023-04-11T11:52:43.839Z,54.25
2023-04-11T11:55:18.898Z,52.20
2023-04-11T11:57:49.118Z,49.50
2023-04-11T12:00:26.178Z,44.64
2023-04-11T12:02:56.681Z,43.87
2023-04-11T12:05:30.463Z,44.99
2023-04-11T12:08:09.138Z,44.43
2023-04-11T12:10:46.845Z,44.44
2023-04-11T12:13:27.278Z,47.53
2023-04-11T12:15:57.873Z,50.27
2023-04-11T12:18:28.643Z,53.01
2023-04-11T12:20:58.640Z,54.38
2023-04-11T12:23:26.838Z,55.52
2023-04-11T12:25:55.393Z,55.94
2023-04-11T12:28:23.785Z,55.02
2023-04-11T12:30:52.134Z,56.46
2023-04-11T12:33:22.366Z,47.01
2023-04-11T12:35:51.416Z,46.10
2023-04-11T12:38:19.943Z,47.86
2023-04-11T12:40:50.999Z,48.97
2023-04-11T12:43:22.580Z,49.63
2023-04-11T12:45:51.543Z,51.22
2023-04-11T12:48:19.821Z,51.76
2023-04-11T12:50:48.072Z,53.00
2023-04-11T12:53:16.429Z,53.81
2023-04-11T12:55:45.882Z,53.60
2023-04-11T12:58:14.297Z,52.80
2023-04-11T13:00:42.843Z,51.04
2023-04-11T13:03:11.958Z,51.83
2023-04-11T13:05:40.688Z,48.80
2023-04-11T13:08:09.082Z,48.17
2023-04-11T13:10:37.354Z,47.20
2023-04-11T13:13:17.450Z,46.79
2023-04-11T13:15:47.438Z,47.55
2023-04-11T13:18:15.944Z,47.25
2023-04-11T13:20:44.189Z,44.99
2023-04-11T13:23:13.689Z,43.78
2023-04-11T13:25:43.443Z,45.14
2023-04-11T13:28:11.708Z,43.74
2023-04-11T13:30:41.290Z,44.01
2023-04-11T13:33:09.880Z,44.11
2023-04-11T13:35:39.212Z,44.13
2023-04-11T13:38:08.250Z,45.14
2023-04-11T13:40:39.080Z,45.37
2023-04-11T13:43:07.426Z,46.05
2023-04-11T13:45:36.157Z,47.58
2023-04-11T13:48:04.705Z,48.17
2023-04-11T13:50:34.636Z,49.50
2023-04-11T13:53:03.104Z,51.31
2023-04-11T13:55:31.763Z,54.32
2023-04-11T13:58:00.379Z,57.67
2023-04-11T14:00:28.889Z,60.56
2023-04-11T14:02:57.934Z,60.39
2023-04-11T14:05:27.212Z,60.04
2023-04-11T14:07:55.770Z,61.27
2023-04-11T14:10:24.117Z,61.56
2023-04-11T14:12:52.539Z,59.95
2023-04-11T14:15:21.910Z,58.32
2023-04-11T14:17:50.486Z,57.78
2023-04-11T14:20:19.180Z,57.92
2023-04-11T14:22:47.581Z,58.41
2023-04-11T14:25:16.022Z,60.37
2023-04-11T14:27:45.198Z,59.17
2023-04-11T14:30:13.676Z,57.66
2023-04-11T14:32:42.111Z,57.55
2023-04-11T14:35:10.536Z,58.20
2023-04-11T14:37:38.845Z,58.83
2023-04-11T14:40:11.360Z,59.47
2023-04-11T14:42:40.475Z,62.28
2023-04-11T14:45:09.519Z,61.52
2023-04-11T14:47:38.169Z,60.28
2023-04-11T14:50:07.943Z,59.99
2023-04-11T14:52:36.343Z,58.00
2023-04-11T14:55:05.357Z,57.75
2023-04-11T14:57:53.590Z,59.10
2023-04-11T15:00:24.939Z,61.55
2023-04-11T15:02:55.896Z,62.30
2023-04-11T15:05:25.933Z,66.76
2023-04-11T15:07:54.670Z,74.39
2023-04-11T15:10:26.992Z,77.41
2023-04-11T15:12:55.575Z,82.74
2023-04-11T15:15:24.301Z,86.60
2023-04-11T15:18:19.304Z,88.53
2023-04-11T15:20:47.634Z,92.57
2023-04-11T15:23:16.541Z,97.72
2023-04-11T15:25:45.618Z,99.80
2023-04-11T15:28:14.035Z,100.00
2023-04-11T15:30:47.987Z,100.00
2023-04-11T15:33:17.060Z,100.00
2023-04-11T15:35:46.233Z,100.00
2023-04-11T15:38:15.485Z,100.00
2023-04-11T15:40:44.072Z,100.00
2023-04-11T15:43:12.737Z,100.00
2023-04-11T15:45:44.449Z,100.00
2023-04-11T15:48:13.511Z,100.00
2023-04-11T15:50:43.318Z,100.00
2023-04-11T15:53:12.558Z,100.00
2023-04-11T15:55:42.955Z,100.00
2023-04-11T15:58:11.436Z,100.00
2023-04-11T16:00:42.366Z,100.00
2023-04-11T16:03:11.409Z,100.00
2023-04-11T16:05:43.387Z,100.00
2023-04-11T16:08:12.282Z,100.00
2023-04-11T16:10:40.627Z,100.00
2023-04-11T16:13:09.475Z,100.00
2023-04-11T16:15:38.258Z,100.00
2023-04-11T16:18:07.219Z,100.00
2023-04-11T16:20:36.054Z,100.00
2023-04-11T16:23:04.436Z,100.00
2023-04-11T16:25:32.749Z,100.00
2023-04-11T16:28:00.802Z,100.00
2023-04-11T16:30:28.927Z,100.00
2023-04-11T16:32:59.501Z,100.00
2023-04-11T16:35:28.272Z,100.00
2023-04-11T16:37:56.576Z,100.00
2023-04-11T16:40:25.419Z,100.00
2023-04-11T16:42:53.714Z,100.00
2023-04-11T16:45:22.297Z,100.00
2023-04-11T16:47:50.874Z,100.00
2023-04-11T16:50:19.773Z,100.00
2023-04-11T16:52:48.296Z,100.00
2023-04-11T16:55:16.990Z,100.00
2023-04-11T16:57:45.209Z,100.00
2023-04-11T17:00:17.432Z,100.00
2023-04-11T17:02:47.238Z,100.00
2023-04-11T17:05:19.203Z,100.00
2023-04-11T17:07:48.172Z,100.00
2023-04-11T17:10:17.055Z,100.00
2023-04-11T17:12:45.312Z,100.00
2023-04-11T17:15:13.379Z,100.00
2023-04-11T17:17:42.131Z,100.00
2023-04-11T17:20:11.963Z,100.00
2023-04-11T17:22:43.719Z,100.00
2023-04-11T17:25:12.332Z,100.00
2023-04-11T17:27:41.812Z,100.00
2023-04-11T17:30:12.330Z,100.00
2023-04-11T17:32:41.213Z,100.00
2023-04-11T17:35:11.657Z,100.00
2023-04-11T17:37:40.232Z,100.00
2023-04-11T17:40:12.925Z,100.00
2023-04-11T17:42:42.114Z,100.00
2023-04-11T17:47:46.617Z,100.00
2023-04-11T17:50:15.560Z,100.00
2023-04-11T17:52:45.323Z,100.00
2023-04-11T17:55:16.012Z,100.00
2023-04-11T17:57:51.466Z,100.00
2023-04-11T18:00:26.110Z,100.00
2023-04-11T18:02:58.122Z,100.00
2023-04-11T18:05:29.460Z,100.00
2023-04-11T18:08:00.336Z,100.00
2023-04-11T18:10:31.031Z,100.00
2023-04-11T18:12:59.760Z,100.00
2023-04-11T18:15:28.280Z,100.00
2023-04-11T18:17:56.916Z,100.00
2023-04-11T18:20:25.204Z,100.00
2023-04-11T18:22:54.958Z,100.00
2023-04-11T18:25:23.527Z,100.00
2023-04-11T18:27:52.253Z,100.00
2023-04-11T18:30:21.026Z,100.00
2023-04-11T18:32:51.911Z,100.00
2023-04-11T18:35:21.334Z,100.00
2023-04-11T18:37:49.814Z,100.00
2023-04-11T18:40:18.580Z,100.00
2023-04-11T18:42:50.452Z,100.00
2023-04-11T18:45:21.983Z,100.00
2023-04-11T18:47:51.116Z,100.00
2023-04-11T18:50:19.945Z,100.00
2023-04-11T18:52:53.487Z,100.00
2023-04-11T18:55:23.363Z,100.00
2023-04-11T18:57:55.533Z,100.00
2023-04-11T19:00:30.476Z,100.00
2023-04-11T19:02:59.689Z,100.00
2023-04-11T19:05:29.524Z,100.00
2023-04-11T19:07:59.961Z,100.00
2023-04-11T19:10:28.651Z,100.00
2023-04-11T19:12:56.977Z,100.00
2023-04-11T19:15:25.742Z,100.00
2023-04-11T19:17:54.265Z,100.00
2023-04-11T19:20:26.730Z,100.00
2023-04-11T19:22:55.009Z,100.00
2023-04-11T19:25:24.608Z,100.00
2023-04-11T19:27:53.207Z,100.00
2023-04-11T19:30:22.159Z,100.00
2023-04-11T19:32:50.859Z,100.00
2023-04-11T19:35:24.271Z,100.00
2023-04-11T19:37:53.679Z,100.00
2023-04-11T19:40:24.806Z,100.00
2023-04-11T19:42:53.693Z,100.00
2023-04-11T19:45:22.335Z,100.00
2023-04-11T19:47:50.958Z,100.00
2023-04-11T19:50:19.381Z,100.00
2023-04-11T19:52:47.494Z,100.00
2023-04-11T19:55:16.300Z,100.00
2023-04-11T19:57:44.548Z,100.00
2023-04-11T20:00:14.295Z,100.00
2023-04-11T20:02:50.522Z,100.00
2023-04-11T20:05:20.008Z,100.00
2023-04-11T20:07:49.036Z,100.00
2023-04-11T20:10:17.726Z,100.00
2023-04-11T20:12:46.353Z,100.00
2023-04-11T20:15:15.198Z,100.00
2023-04-11T20:17:45.919Z,100.00
2023-04-11T20:20:15.915Z,100.00
2023-04-11T20:22:45.048Z,100.00
2023-04-11T20:25:13.635Z,100.00
2023-04-11T20:27:42.903Z,100.00
2023-04-11T20:30:12.327Z,100.00
2023-04-11T20:32:41.477Z,100.00
2023-04-11T20:35:12.453Z,100.00
2023-04-11T20:37:43.909Z,100.00
2023-04-11T20:40:14.413Z,100.00
2023-04-11T20:42:46.057Z,100.00
2023-04-11T20:45:21.923Z,100.00
2023-04-11T20:47:50.586Z,100.00
2023-04-11T20:50:20.125Z,100.00
2023-04-11T20:52:52.866Z,100.00
2023-04-11T20:55:21.259Z,100.00
2023-04-11T20:57:49.865Z,100.00
2023-04-11T21:00:20.094Z,100.00
2023-04-11T21:02:50.798Z,100.00
2023-04-11T21:05:25.312Z,100.00
2023-04-11T21:07:58.969Z,100.00
2023-04-11T21:10:27.585Z,100.00
2023-04-11T21:12:55.962Z,100.00
2023-04-11T21:15:24.329Z,100.00
2023-04-11T21:17:52.591Z,100.00
2023-04-11T21:20:22.525Z,100.00
2023-04-11T21:22:55.417Z,100.00
2023-04-11T21:25:24.347Z,100.00
2023-04-11T21:27:52.752Z,100.00
2023-04-11T21:30:21.109Z,100.00
2023-04-11T21:32:49.449Z,100.00
2023-04-11T21:35:17.729Z,100.00
2023-04-11T21:37:48.490Z,100.00
2023-04-11T21:40:17.601Z,100.00
2023-04-11T21:42:46.279Z,100.00
2023-04-11T21:45:14.544Z,100.00
2023-04-11T21:47:43.026Z,100.00
2023-04-11T21:50:11.725Z,100.00
2023-04-11T21:52:40.436Z,100.00
2023-04-11T21:55:09.298Z,100.00
2023-04-11T21:57:37.786Z,100.00
2023-04-11T22:00:08.541Z,100.00
2023-04-11T22:02:42.788Z,100.00
2023-04-11T22:05:12.870Z,100.00
2023-04-11T22:07:47.545Z,100.00
2023-04-11T22:10:22.750Z,100.00
2023-04-11T22:12:54.145Z,100.00
2023-04-11T22:15:24.484Z,100.00
2023-04-11T22:17:56.599Z,100.00
2023-04-11T22:20:24.805Z,100.00
2023-04-11T22:22:53.017Z,100.00
2023-04-11T22:25:22.748Z,100.00
2023-04-11T22:27:54.709Z,100.00
2023-04-11T22:30:24.731Z,100.00
2023-04-11T22:32:54.423Z,100.00
2023-04-11T22:35:26.279Z,100.00
2023-04-11T22:37:57.362Z,100.00
2023-04-11T22:40:25.714Z,100.00
2023-04-11T22:42:54.219Z,100.00
2023-04-11T22:45:23.513Z,100.00
2023-04-11T22:47:54.575Z,100.00
2023-04-11T22:50:23.467Z,100.00
2023-04-11T22:52:51.668Z,100.00
2023-04-11T22:55:21.391Z,100.00
2023-04-11T22:57:50.448Z,100.00
2023-04-11T23:00:19.361Z,100.00
2023-04-11T23:02:48.073Z,100.00
2023-04-11T23:05:16.910Z,100.00
2023-04-11T23:07:45.419Z,100.00
2023-04-11T23:10:17.253Z,100.00
2023-04-11T23:12:46.014Z,100.00
2023-04-11T23:15:14.628Z,100.00
2023-04-11T23:17:42.891Z,100.00
2023-04-11T23:20:13.971Z,100.00
2023-04-11T23:22:44.159Z,100.00
2023-04-11T23:25:14.368Z,100.00
2023-04-11T23:27:43.869Z,100.00
2023-04-11T23:30:15.286Z,100.00
2023-04-11T23:32:43.747Z,100.00
2023-04-11T23:35:12.013Z,100.00
2023-04-11T23:37:41.065Z,100.00
2023-04-11T23:40:11.191Z,100.00
2023-04-11T23:42:41.135Z,100.00
2023-04-11T23:45:11.042Z,100.00
2023-04-11T23:47:39.058Z,100.00
2023-04-11T23:50:08.418Z,100.00
2023-04-11T23:52:36.675Z,100.00
2023-04-11T23:55:05.243Z,100.00
2023-04-11T23:57:33.331Z,100.00
